Unionville, Indiana
Current Conditions -  °F | °C
As of 11:35 AM on Monday 26 Jan 2015 (Local Time) from K1II Reporting Station
Scattered Clouds Scattered Clouds  
Wind Chill: 23°   Ceiling: Unl
Heat Index: 28°   Visibility: 10mi
Dew Point: 21°   Wind: 5mph
Humidity: 74%   Direction: 330°NNW
Pressure: 29.96"   Gusts: NA
Location:  39.23°N, 86.42°W
Report Text: K1II 261635Z AUTO 33004KT 10SM SCT017 M02/M06 A2996 RMK AO2
Loading
Personal Weather Stations






























Interactive Weather Map New forecast layout! Learn more

10-Day Weather Forecast

Advertisements
Track Severe Weather on mobile